Time;durP1;ratioP1;P1;durP2;ratioP2;P2;SDS_P1;SDS_P2;PMS_P1;PMS_P2;Temp;Humidity;BMP_temperature;BMP_pressure;BME280_temperature;BME280_humidity;BME280_pressure;Samples;Min_cycle;Max_cycle;Signal;HPM_P1;HPM_P2
2021/09/30 00:00:17;;;;;;;2.57;1.50;;;12.20;99.90;;;;;;6123648;23;20439;-88
2021/09/30 00:02:44;;;;;;;2.17;1.60;;;12.40;99.90;;;;;;6123828;23;20514;-86
2021/09/30 00:05:12;;;;;;;1.40;1.30;;;12.30;99.70;;;;;;6121056;23;20395;-87
2021/09/30 00:07:39;;;;;;;1.77;1.43;;;12.30;99.80;;;;;;6120861;23;20418;-85
2021/09/30 00:10:08;;;;;;;3.70;1.53;;;12.30;99.90;;;;;;6099686;23;20517;-87
2021/09/30 00:12:41;;;;;;;1.10;1.00;;;12.60;99.40;;;;;;6097988;23;20430;-86
2021/09/30 00:15:12;;;;;;;2.00;1.23;;;12.50;99.10;;;;;;6018877;23;20427;-87
2021/09/30 00:34:17;;;;;;;2.07;1.10;;;12.40;99.20;;;;;;6126226;23;21118;-87
2021/09/30 00:52:46;;;;;;;4.33;1.63;;;12.10;99.90;;;;;;6124400;23;20495;-87
2021/09/30 01:33:48;;;;;;;1.93;1.70;;;11.90;99.90;;;;;;6117024;23;20411;-85
2021/09/30 01:57:43;;;;;;;2.83;1.53;;;11.90;99.90;;;;;;6122151;23;20529;-86
2021/09/30 02:31:30;;;;;;;3.77;1.73;;;11.80;99.90;;;;;;6121211;23;20462;-84
2021/09/30 02:59:18;;;;;;;4.93;1.57;;;11.50;99.90;;;;;;6113451;23;20431;-84
2021/09/30 03:01:46;;;;;;;4.10;1.83;;;11.60;99.90;;;;;;6117867;23;20458;-87
2021/09/30 03:04:16;;;;;;;4.00;1.50;;;11.60;99.90;;;;;;6116577;23;20419;-87
2021/09/30 03:06:45;;;;;;;4.63;1.67;;;11.50;99.90;;;;;;6118200;23;20439;-86
2021/09/30 03:09:13;;;;;;;6.03;1.60;;;11.60;99.90;;;;;;6117745;23;20505;-87
2021/09/30 03:11:42;;;;;;;2.37;1.60;;;11.70;99.90;;;;;;6094675;23;20409;-85
2021/09/30 03:14:10;;;;;;;3.83;1.97;;;11.70;99.90;;;;;;6105187;23;20443;-88
2021/09/30 03:16:47;;;;;;;3.90;1.80;;;11.70;99.90;;;;;;6106952;23;20414;-87
2021/09/30 03:19:33;;;;;;;4.17;1.93;;;11.80;99.90;;;;;;6097616;23;20441;-88
2021/09/30 03:24:39;;;;;;;5.60;1.37;;;11.70;99.90;;;;;;6117514;23;20415;-85
2021/09/30 03:27:06;;;;;;;2.00;1.80;;;11.80;99.90;;;;;;6096671;23;20415;-88
2021/09/30 03:29:33;;;;;;;3.83;1.57;;;11.70;99.90;;;;;;6119270;23;20450;-88
2021/09/30 03:32:00;;;;;;;3.87;1.87;;;11.70;99.90;;;;;;6116618;23;20442;-84
2021/09/30 03:34:27;;;;;;;3.00;1.80;;;11.80;99.90;;;;;;6118567;23;21016;-84
2021/09/30 03:36:55;;;;;;;6.87;3.33;;;11.70;99.90;;;;;;6119648;23;20403;-85
2021/09/30 03:39:25;;;;;;;4.70;1.73;;;11.70;99.90;;;;;;6094303;23;20442;-84
2021/09/30 03:41:55;;;;;;;2.83;2.03;;;11.80;99.90;;;;;;6088698;23;20426;-85
2021/09/30 03:44:22;;;;;;;5.50;1.77;;;11.70;99.90;;;;;;6092141;23;20419;-87
2021/09/30 03:46:52;;;;;;;2.67;1.73;;;11.70;99.90;;;;;;6091034;23;20422;-84
2021/09/30 03:49:29;;;;;;;3.77;1.70;;;11.70;99.90;;;;;;6116609;23;20441;-85
2021/09/30 03:52:02;;;;;;;6.93;1.67;;;11.60;99.90;;;;;;6118657;23;20391;-85
2021/09/30 03:54:36;;;;;;;2.47;2.23;;;11.50;99.90;;;;;;6119522;23;20934;-86
2021/09/30 03:59:30;;;;;;;1.70;1.50;;;11.60;99.90;;;;;;6117845;23;20435;-86
2021/09/30 04:02:03;;;;;;;2.93;1.80;;;11.60;99.90;;;;;;6116971;23;20418;-87
2021/09/30 04:04:33;;;;;;;4.40;1.87;;;11.50;99.90;;;;;;6116390;23;20419;-86
2021/09/30 04:07:05;;;;;;;4.20;1.50;;;11.50;99.90;;;;;;6092767;23;20430;-85
2021/09/30 04:09:37;;;;;;;2.67;1.50;;;11.40;99.90;;;;;;6086789;23;20495;-85
2021/09/30 04:12:07;;;;;;;5.93;2.10;;;11.60;99.90;;;;;;6096960;23;20449;-83
2021/09/30 04:14:34;;;;;;;6.40;2.33;;;11.40;99.90;;;;;;6093961;23;20649;-84
2021/09/30 04:17:01;;;;;;;2.80;1.97;;;11.30;99.90;;;;;;6101105;23;20760;-86
2021/09/30 04:19:28;;;;;;;7.00;2.37;;;11.20;99.90;;;;;;6133188;23;20487;-86
2021/09/30 04:21:57;;;;;;;3.93;1.63;;;11.20;99.90;;;;;;6142458;23;20473;-87
2021/09/30 04:24:24;;;;;;;3.30;1.80;;;11.40;99.90;;;;;;6118198;23;20427;-87
2021/09/30 04:26:53;;;;;;;5.40;2.20;;;11.50;99.90;;;;;;6134958;23;20436;-87
2021/09/30 04:29:20;;;;;;;4.73;1.80;;;11.40;99.90;;;;;;6144414;23;20790;-87
2021/09/30 04:31:47;;;;;;;4.30;2.03;;;11.40;99.90;;;;;;6122389;23;20438;-85
2021/09/30 04:34:14;;;;;;;3.97;1.70;;;11.40;99.90;;;;;;6124019;23;20439;-85
2021/09/30 04:36:41;;;;;;;3.40;1.83;;;11.60;99.90;;;;;;6129341;23;20415;-85
2021/09/30 04:39:08;;;;;;;4.50;2.60;;;11.60;99.90;;;;;;6103529;23;20510;-87
2021/09/30 04:41:35;;;;;;;3.30;2.57;;;11.60;99.90;;;;;;6129218;23;20411;-84
2021/09/30 04:44:03;;;;;;;3.53;1.93;;;11.40;99.90;;;;;;6132808;23;20955;-87
2021/09/30 04:46:30;;;;;;;1.80;1.63;;;11.50;99.90;;;;;;6135903;23;20411;-84
2021/09/30 04:48:57;;;;;;;2.90;1.90;;;11.50;99.90;;;;;;6123649;23;20439;-85
2021/09/30 04:51:23;;;;;;;7.40;1.87;;;11.50;99.90;;;;;;6122478;23;20494;-84
2021/09/30 04:53:50;;;;;;;3.80;2.03;;;11.50;99.90;;;;;;6094707;23;20446;-83
2021/09/30 04:56:17;;;;;;;3.60;1.93;;;11.40;99.90;;;;;;6100981;23;20450;-86
2021/09/30 04:58:44;;;;;;;4.20;1.90;;;11.50;99.90;;;;;;6129045;23;20439;-87
2021/09/30 05:01:10;;;;;;;4.70;2.63;;;11.50;99.90;;;;;;6140579;23;20502;-89
2021/09/30 05:03:37;;;;;;;19.60;13.20;;;11.40;99.90;;;;;;6138460;23;20427;-87
2021/09/30 05:06:04;;;;;;;6.67;4.77;;;11.40;99.90;;;;;;6140072;23;20471;-86
2021/09/30 05:08:34;;;;;;;4.03;2.40;;;11.30;99.90;;;;;;6143145;23;20411;-87
2021/09/30 05:11:03;;;;;;;3.20;2.53;;;11.30;99.90;;;;;;6143382;23;20399;-86
2021/09/30 05:13:41;;;;;;;3.57;2.10;;;11.30;99.90;;;;;;6143930;23;20414;-86
2021/09/30 05:16:13;;;;;;;3.17;1.60;;;11.20;99.90;;;;;;6135576;23;21297;-86
2021/09/30 05:18:45;;;;;;;6.87;2.40;;;11.20;99.90;;;;;;6125906;23;20415;-86
2021/09/30 05:21:11;;;;;;;3.83;1.90;;;11.20;99.90;;;;;;6124693;23;20425;-85
2021/09/30 05:23:39;;;;;;;5.77;2.00;;;11.20;99.90;;;;;;6124682;23;20917;-85
2021/09/30 05:26:17;;;;;;;4.77;2.13;;;11.20;99.90;;;;;;6127054;23;20410;-86
2021/09/30 05:28:44;;;;;;;4.80;2.53;;;11.20;99.90;;;;;;6147105;23;20431;-88
2021/09/30 05:31:11;;;;;;;6.77;1.83;;;11.10;99.90;;;;;;6132416;23;20441;-86
2021/09/30 05:33:38;;;;;;;6.33;2.33;;;11.20;99.90;;;;;;6109265;23;20422;-86
2021/09/30 05:36:10;;;;;;;2.23;1.80;;;11.20;99.90;;;;;;6124047;23;20425;-87
2021/09/30 05:38:37;;;;;;;4.70;2.27;;;11.30;99.90;;;;;;6123921;23;20521;-85
2021/09/30 05:41:58;;;;;;;3.93;1.90;;;11.30;99.90;;;;;;6123627;23;20970;-87
2021/09/30 05:44:31;;;;;;;6.80;2.30;;;11.20;99.90;;;;;;6126986;23;20867;-85
2021/09/30 05:47:01;;;;;;;3.27;1.90;;;11.20;99.90;;;;;;6125044;23;20424;-88
2021/09/30 05:49:32;;;;;;;4.40;2.27;;;11.20;99.90;;;;;;6125130;23;21380;-87
2021/09/30 05:52:07;;;;;;;4.77;1.50;;;11.20;99.90;;;;;;6124389;23;20421;-86
2021/09/30 05:54:34;;;;;;;4.13;2.57;;;11.20;99.90;;;;;;6126832;23;20445;-86
2021/09/30 05:57:11;;;;;;;5.57;1.60;;;11.10;99.90;;;;;;6127131;23;21003;-90
2021/09/30 05:59:49;;;;;;;3.83;1.40;;;11.20;99.90;;;;;;6126270;23;20431;-86
2021/09/30 06:10:44;;;;;;;2.87;1.33;;;11.20;99.90;;;;;;6131183;23;20442;-88
2021/09/30 06:13:16;;;;;;;4.07;1.57;;;11.20;99.90;;;;;;6126808;23;20421;-88
2021/09/30 06:15:44;;;;;;;6.53;2.10;;;11.20;99.90;;;;;;6095160;23;20448;-88
2021/09/30 06:18:13;;;;;;;3.50;1.90;;;11.30;99.90;;;;;;6042124;23;20395;-88
2021/09/30 06:20:46;;;;;;;2.73;1.70;;;11.40;99.90;;;;;;6102732;23;20434;-88
2021/09/30 06:23:13;;;;;;;4.77;1.83;;;11.40;99.90;;;;;;6102044;23;20482;-89
2021/09/30 06:25:44;;;;;;;6.00;1.90;;;11.40;99.90;;;;;;6099057;23;20429;-87
2021/09/30 06:28:32;;;;;;;5.50;2.03;;;11.40;99.90;;;;;;6102262;23;20579;-86
2021/09/30 06:31:04;;;;;;;3.30;2.00;;;11.50;99.90;;;;;;6099944;23;20454;-85
2021/09/30 06:33:49;;;;;;;5.33;2.00;;;11.50;99.90;;;;;;6115889;23;20407;-86
2021/09/30 06:36:20;;;;;;;5.03;1.40;;;11.50;99.90;;;;;;6125794;23;20454;-87
2021/09/30 06:39:01;;;;;;;3.03;1.63;;;11.50;99.90;;;;;;6098712;23;20434;-86
2021/09/30 06:41:34;;;;;;;5.10;2.10;;;11.60;99.90;;;;;;6124832;23;20411;-87
2021/09/30 06:44:18;;;;;;;4.90;1.73;;;11.70;99.90;;;;;;6125657;23;20489;-88
2021/09/30 06:46:45;;;;;;;4.10;1.70;;;11.80;99.90;;;;;;6124542;23;20419;-87
2021/09/30 06:49:13;;;;;;;3.33;2.33;;;11.80;99.90;;;;;;6115180;23;20431;-87
2021/09/30 06:51:40;;;;;;;3.67;2.23;;;11.90;99.90;;;;;;6125608;23;21354;-85
2021/09/30 06:54:11;;;;;;;8.37;2.40;;;11.90;99.90;;;;;;6122116;23;20411;-87
2021/09/30 06:56:48;;;;;;;7.17;2.00;;;11.90;99.90;;;;;;6113011;23;20879;-87
2021/09/30 06:59:22;;;;;;;29.20;26.47;;;12.00;99.90;;;;;;6122608;23;20433;-86
2021/09/30 07:01:56;;;;;;;5.87;2.23;;;12.10;99.80;;;;;;6126631;23;20510;-85
2021/09/30 07:04:23;;;;;;;4.30;2.60;;;12.10;99.50;;;;;;6123647;23;20446;-87
2021/09/30 07:06:51;;;;;;;6.97;2.30;;;12.30;99.90;;;;;;6127493;23;20418;-88
2021/09/30 07:09:32;;;;;;;2.67;1.80;;;14.00;99.60;;;;;;6121960;23;20978;-86
2021/09/30 07:12:07;;;;;;;2.80;1.87;;;16.90;93.90;;;;;;6125738;23;20861;-86
2021/09/30 07:14:36;;;;;;;7.33;2.10;;;19.00;88.10;;;;;;6100234;23;20438;-86
2021/09/30 07:17:07;;;;;;;4.83;2.30;;;20.40;79.90;;;;;;6112036;23;20942;-88
2021/09/30 07:19:36;;;;;;;2.37;1.73;;;21.60;75.00;;;;;;6098017;23;21092;-86
2021/09/30 07:22:09;;;;;;;3.20;2.10;;;22.40;69.40;;;;;;6122138;23;20421;-88
2021/09/30 07:24:37;;;;;;;5.93;2.33;;;22.60;67.20;;;;;;6115870;23;20427;-87
2021/09/30 07:27:09;;;;;;;4.20;1.87;;;23.30;64.10;;;;;;6121554;23;20476;-86
2021/09/30 07:29:36;;;;;;;3.17;2.10;;;23.20;62.60;;;;;;6121856;23;20422;-87
2021/09/30 07:32:04;;;;;;;5.10;2.60;;;23.50;61.30;;;;;;6118617;23;20934;-87
2021/09/30 07:34:33;;;;;;;6.10;2.00;;;23.50;60.00;;;;;;6123685;23;20411;-87
2021/09/30 07:37:00;;;;;;;3.90;2.43;;;23.50;59.70;;;;;;6120705;23;20423;-85
2021/09/30 07:39:29;;;;;;;3.83;2.90;;;24.20;58.80;;;;;;6122712;23;20435;-88
2021/09/30 07:42:00;;;;;;;6.63;2.37;;;24.40;57.50;;;;;;6116517;23;20415;-86
2021/09/30 07:44:33;;;;;;;6.00;2.60;;;24.30;56.40;;;;;;6120108;23;20854;-85
2021/09/30 07:47:04;;;;;;;7.50;2.90;;;22.90;57.10;;;;;;6122382;23;21198;-87
2021/09/30 07:49:36;;;;;;;5.20;2.43;;;20.40;61.60;;;;;;6116561;23;20443;-87
2021/09/30 07:52:12;;;;;;;5.30;2.43;;;19.20;66.10;;;;;;6127900;23;20470;-87
2021/09/30 07:54:46;;;;;;;4.03;1.73;;;18.10;70.70;;;;;;6102412;23;21021;-87
2021/09/30 07:57:15;;;;;;;4.57;2.00;;;17.50;74.30;;;;;;6099676;23;20418;-88
2021/09/30 07:59:42;;;;;;;4.00;2.20;;;17.00;76.70;;;;;;6117691;23;20470;-87
2021/09/30 08:02:09;;;;;;;2.97;2.10;;;16.40;79.60;;;;;;6127568;23;20469;-89
2021/09/30 08:04:37;;;;;;;4.73;2.30;;;15.80;81.80;;;;;;6127187;23;21139;-87
2021/09/30 08:07:06;;;;;;;4.00;2.13;;;15.40;84.60;;;;;;6126175;23;20411;-87
2021/09/30 08:09:34;;;;;;;5.13;3.00;;;15.40;87.30;;;;;;6132502;23;20514;-87
2021/09/30 08:12:02;;;;;;;4.17;2.40;;;15.40;87.10;;;;;;6142723;23;20884;-86
2021/09/30 08:14:32;;;;;;;5.83;2.47;;;15.20;88.20;;;;;;6145976;23;20426;-87
2021/09/30 08:16:58;;;;;;;4.13;2.10;;;15.00;89.80;;;;;;6142089;23;20434;-87
2021/09/30 08:19:28;;;;;;;2.83;2.10;;;15.20;89.80;;;;;;6141871;23;21095;-87
2021/09/30 08:21:55;;;;;;;5.10;2.40;;;15.30;89.90;;;;;;6118627;23;20407;-87
2021/09/30 08:24:22;;;;;;;2.97;2.33;;;15.40;90.00;;;;;;6140462;23;20423;-88
2021/09/30 08:26:51;;;;;;;4.60;2.37;;;15.30;90.00;;;;;;6103748;23;20531;-86
2021/09/30 08:29:21;;;;;;;5.03;2.23;;;15.20;90.10;;;;;;6122853;23;20446;-87
2021/09/30 08:31:50;;;;;;;5.43;2.07;;;15.10;90.50;;;;;;6113458;23;20463;-85
2021/09/30 08:34:20;;;;;;;7.73;2.17;;;15.20;90.80;;;;;;6121404;23;20826;-87
2021/09/30 08:36:48;;;;;;;5.63;2.17;;;15.30;91.00;;;;;;6121187;23;20494;-87
2021/09/30 08:39:27;;;;;;;3.63;2.10;;;15.50;90.50;;;;;;6118836;23;20435;-86
2021/09/30 08:41:55;;;;;;;6.30;2.37;;;15.50;90.60;;;;;;6123445;23;20402;-85
2021/09/30 08:44:34;;;;;;;8.30;3.37;;;15.70;90.30;;;;;;6097627;23;20475;-86
2021/09/30 08:47:24;;;;;;;5.87;2.33;;;15.60;90.30;;;;;;6117691;23;20410;-86
2021/09/30 08:50:32;;;;;;;4.70;2.07;;;15.60;90.50;;;;;;6153742;23;20560;-88
2021/09/30 08:53:19;;;;;;;5.80;3.03;;;15.70;90.50;;;;;;6163506;23;20439;-88
2021/09/30 08:56:09;;;;;;;3.70;2.57;;;15.80;90.10;;;;;;6164832;23;20467;-86
2021/09/30 08:59:13;;;;;;;3.20;1.83;;;15.90;90.10;;;;;;6144096;23;20489;-88
2021/09/30 09:02:41;;;;;;;2.90;1.53;;;15.80;90.40;;;;;;4593853;27;13743472;-88
2021/09/30 09:05:54;;;;;;;3.23;2.00;;;16.10;89.80;;;;;;5075556;27;20611;-88
2021/09/30 09:09:21;;;;;;;6.20;2.03;;;16.20;88.60;;;;;;5016855;28;20448;-88
2021/09/30 09:12:07;;;;;;;3.93;2.00;;;16.00;88.70;;;;;;4999941;28;20478;-89
2021/09/30 09:15:12;;;;;;;2.37;1.43;;;16.00;88.10;;;;;;4993109;28;20495;-87
2021/09/30 09:17:59;;;;;;;3.40;1.40;;;15.90;86.40;;;;;;5006532;28;20452;-89
2021/09/30 09:20:33;;;;;;;4.07;1.77;;;15.70;87.00;;;;;;4979548;28;20546;-86
2021/09/30 09:23:01;;;;;;;4.47;1.93;;;15.60;87.50;;;;;;4987254;28;21991;-90
2021/09/30 09:25:29;;;;;;;2.10;1.40;;;15.40;88.40;;;;;;4989282;28;20462;-87
2021/09/30 09:28:06;;;;;;;6.93;1.70;;;15.20;88.80;;;;;;4977479;28;21067;-88
2021/09/30 09:30:47;;;;;;;2.73;1.53;;;15.20;89.50;;;;;;4974882;28;20480;-89
2021/09/30 09:33:24;;;;;;;5.53;1.70;;;15.20;90.10;;;;;;4992270;28;21603;-86
2021/09/30 09:35:58;;;;;;;3.43;1.17;;;15.20;90.10;;;;;;4979588;28;20466;-86
2021/09/30 09:38:30;;;;;;;2.83;1.30;;;15.70;90.50;;;;;;4992035;28;20457;-88
2021/09/30 09:41:01;;;;;;;2.97;1.30;;;17.30;85.90;;;;;;5051571;28;20478;-86
2021/09/30 09:44:12;;;;;;;4.80;1.50;;;19.90;76.00;;;;;;5035896;28;20500;-84
2021/09/30 09:46:45;;;;;;;3.83;1.50;;;21.20;66.30;;;;;;5054283;28;20457;-86
2021/09/30 09:49:19;;;;;;;4.33;1.43;;;20.60;65.90;;;;;;5051427;28;20473;-86
2021/09/30 09:51:53;;;;;;;6.10;1.63;;;21.70;63.10;;;;;;5033429;28;20454;-85
2021/09/30 09:54:30;;;;;;;1.40;1.13;;;22.00;59.80;;;;;;5034738;28;21426;-86
2021/09/30 09:57:15;;;;;;;1.87;1.07;;;22.00;59.50;;;;;;5035613;28;20669;-86
2021/09/30 09:59:55;;;;;;;2.40;1.43;;;21.90;59.90;;;;;;5026259;28;20479;-86
2021/09/30 10:02:58;;;;;;;3.40;1.10;;;23.20;57.60;;;;;;5021382;28;20469;-87
2021/09/30 10:05:28;;;;;;;2.03;1.10;;;23.10;56.00;;;;;;5034644;28;22060;-86
2021/09/30 10:08:11;;;;;;;3.97;1.77;;;22.10;57.50;;;;;;5020299;28;20455;-85
2021/09/30 10:10:53;;;;;;;5.20;1.70;;;20.60;60.00;;;;;;5017794;28;20470;-86
2021/09/30 10:13:37;;;;;;;1.77;1.60;;;19.40;64.20;;;;;;5018599;28;20455;-87
2021/09/30 10:16:14;;;;;;;2.80;1.23;;;19.40;67.30;;;;;;4999259;28;20485;-86
2021/09/30 10:18:54;;;;;;;2.47;1.20;;;19.70;64.90;;;;;;5000331;28;20473;-84
2021/09/30 10:21:32;;;;;;;4.40;1.23;;;19.90;63.80;;;;;;5012352;28;20490;-87
2021/09/30 10:24:03;;;;;;;3.17;1.23;;;19.70;62.60;;;;;;5023259;28;20528;-87
2021/09/30 10:26:44;;;;;;;2.60;1.10;;;19.00;64.10;;;;;;5026576;28;20435;-87
2021/09/30 10:29:44;;;;;;;3.40;1.27;;;18.60;66.40;;;;;;5042965;28;20471;-87
2021/09/30 10:32:23;;;;;;;6.37;2.83;;;18.60;66.50;;;;;;5024284;28;22169;-86
2021/09/30 10:34:59;;;;;;;5.50;2.13;;;18.70;67.10;;;;;;5024415;28;20483;-88
2021/09/30 10:37:31;;;;;;;3.60;1.60;;;18.10;68.60;;;;;;5009907;28;20456;-85
2021/09/30 10:40:16;;;;;;;3.53;1.40;;;17.90;70.60;;;;;;5011278;28;20505;-88
2021/09/30 10:42:56;;;;;;;3.17;1.30;;;17.70;70.80;;;;;;5012227;28;21087;-85
2021/09/30 10:45:27;;;;;;;3.97;1.40;;;18.20;70.20;;;;;;5008106;28;20455;-87
2021/09/30 10:48:28;;;;;;;3.50;1.13;;;18.10;68.70;;;;;;5025145;28;20494;-87
2021/09/30 10:51:06;;;;;;;2.10;1.30;;;17.90;67.00;;;;;;4993285;28;22779;-88
2021/09/30 10:53:44;;;;;;;5.13;1.20;;;17.80;67.40;;;;;;5010480;28;20551;-87
2021/09/30 10:56:33;;;;;;;3.60;1.40;;;17.90;65.40;;;;;;5023436;28;20462;-86
2021/09/30 10:59:43;;;;;;;5.43;1.60;;;18.00;65.10;;;;;;5003610;28;20840;-87
2021/09/30 11:02:10;;;;;;;5.27;1.10;;;18.20;65.30;;;;;;5004534;28;21086;-85
2021/09/30 11:05:06;;;;;;;3.53;1.53;;;18.30;63.50;;;;;;5006368;28;20444;-87
2021/09/30 11:07:47;;;;;;;1.70;0.97;;;18.30;63.50;;;;;;5009511;28;20547;-87
2021/09/30 11:10:25;;;;;;;5.60;1.53;;;18.40;62.30;;;;;;4999878;28;20500;-88
2021/09/30 11:13:14;;;;;;;1.70;1.03;;;18.40;61.60;;;;;;5027355;28;20463;-87
2021/09/30 11:16:17;;;;;;;5.20;1.20;;;18.10;60.40;;;;;;5009401;28;22064;-86
2021/09/30 11:18:57;;;;;;;1.70;0.93;;;17.80;61.60;;;;;;4999971;28;21721;-86
2021/09/30 11:21:44;;;;;;;2.10;0.90;;;18.80;61.10;;;;;;5004394;28;21876;-86
2021/09/30 11:24:23;;;;;;;2.00;1.00;;;19.10;59.80;;;;;;5022672;28;20455;-86
2021/09/30 11:26:52;;;;;;;2.67;1.03;;;18.50;59.40;;;;;;5011241;28;21910;-86
2021/09/30 11:29:32;;;;;;;10.33;2.57;;;18.20;59.90;;;;;;5018799;28;20471;-87
2021/09/30 11:31:59;;;;;;;3.47;1.23;;;18.00;60.20;;;;;;5002136;28;20546;-86
2021/09/30 11:34:35;;;;;;;2.70;1.17;;;17.80;60.00;;;;;;4655593;28;9999888;-87
2021/09/30 11:37:19;;;;;;;5.07;1.83;;;17.80;60.10;;;;;;5022299;28;20621;-86
2021/09/30 11:39:50;;;;;;;3.70;1.50;;;17.80;61.40;;;;;;5007705;28;20456;-87
2021/09/30 11:42:19;;;;;;;4.17;1.00;;;17.80;62.10;;;;;;5021458;28;20472;-87
2021/09/30 11:45:03;;;;;;;3.17;1.27;;;17.70;61.70;;;;;;4996265;28;20460;-86
2021/09/30 11:47:31;;;;;;;2.43;1.17;;;17.70;62.00;;;;;;5006079;28;20452;-86
2021/09/30 11:49:59;;;;;;;5.60;1.50;;;17.70;62.90;;;;;;5005875;28;20475;-88
2021/09/30 11:52:26;;;;;;;6.20;1.20;;;17.90;62.90;;;;;;5000240;28;20480;-89
2021/09/30 11:54:53;;;;;;;3.93;1.07;;;18.00;62.50;;;;;;5005740;28;20463;-87
2021/09/30 11:57:25;;;;;;;2.23;1.00;;;18.00;62.20;;;;;;5001797;28;20439;-87
2021/09/30 12:00:07;;;;;;;2.80;0.90;;;18.00;61.50;;;;;;4999020;28;20486;-89
2021/09/30 12:02:34;;;;;;;3.13;0.90;;;18.20;61.60;;;;;;5023377;28;20582;-88
2021/09/30 12:05:04;;;;;;;4.37;1.20;;;18.20;60.30;;;;;;5023097;28;20439;-88
2021/09/30 12:07:31;;;;;;;4.30;1.23;;;18.20;60.00;;;;;;5021132;28;20508;-85
2021/09/30 12:10:00;;;;;;;2.53;0.90;;;18.80;59.50;;;;;;5021361;28;20470;-87
2021/09/30 12:12:33;;;;;;;4.27;1.20;;;18.90;59.00;;;;;;5043280;28;20455;-83
2021/09/30 12:15:03;;;;;;;3.90;0.97;;;19.50;58.30;;;;;;5025446;28;20434;-85
2021/09/30 12:17:32;;;;;;;2.53;1.23;;;19.20;58.30;;;;;;5019738;28;20465;-85
2021/09/30 12:20:01;;;;;;;4.00;1.43;;;19.20;58.80;;;;;;5021881;28;20486;-85
2021/09/30 12:22:36;;;;;;;2.40;0.80;;;19.50;57.60;;;;;;5027519;28;21938;-87
2021/09/30 12:25:12;;;;;;;2.27;1.10;;;19.60;55.60;;;;;;5021847;28;20507;-86
2021/09/30 12:27:42;;;;;;;3.93;1.13;;;19.10;56.60;;;;;;5011790;28;21049;-86
2021/09/30 12:30:14;;;;;;;2.60;0.83;;;18.80;56.70;;;;;;5020510;28;21348;-86
2021/09/30 12:32:44;;;;;;;2.67;1.23;;;18.70;57.20;;;;;;5021004;28;22245;-85
2021/09/30 12:35:32;;;;;;;1.43;0.90;;;18.90;57.20;;;;;;5013706;28;20577;-85
2021/09/30 12:38:05;;;;;;;2.40;0.80;;;19.60;56.80;;;;;;5021287;28;20567;-88
2021/09/30 12:40:43;;;;;;;5.20;1.40;;;19.90;55.80;;;;;;5021700;28;21170;-87
2021/09/30 12:43:13;;;;;;;4.07;1.50;;;19.80;55.50;;;;;;5021718;28;20457;-87
2021/09/30 12:45:46;;;;;;;1.57;0.70;;;19.40;56.50;;;;;;5027727;28;20480;-87
2021/09/30 13:34:20;;;;;;;2.67;0.87;;;18.90;58.00;;;;;;4941522;28;20498;-86
2021/09/30 13:36:53;;;;;;;2.40;1.07;;;18.80;58.00;;;;;;4937254;28;20518;-88
2021/09/30 13:39:45;;;;;;;3.13;0.90;;;18.50;58.60;;;;;;4939638;28;20531;-86
2021/09/30 13:42:37;;;;;;;2.43;0.90;;;18.30;58.90;;;;;;4949034;28;20491;-88
2021/09/30 13:45:14;;;;;;;3.97;0.80;;;18.00;59.60;;;;;;4931411;28;20469;-88
2021/09/30 13:52:56;;;;;;;;;;;;;;;;;;;;;
2021/09/30 14:02:20;;;;;;;2.80;1.40;;;18.00;60.00;;;;;;4985191;28;20488;-85
2021/09/30 14:04:48;;;;;;;2.20;1.00;;;18.10;59.50;;;;;;4986358;28;20433;-87
2021/09/30 14:07:23;;;;;;;4.30;1.20;;;18.30;59.30;;;;;;4970662;28;20467;-86
2021/09/30 14:10:01;;;;;;;2.20;1.07;;;18.00;59.80;;;;;;4981251;28;20544;-86
2021/09/30 14:12:56;;;;;;;6.80;1.20;;;17.80;60.60;;;;;;4975551;28;20462;-88
2021/09/30 14:15:29;;;;;;;3.27;1.60;;;17.70;61.50;;;;;;4980415;28;20449;-86
2021/09/30 14:18:01;;;;;;;2.63;1.10;;;17.70;61.50;;;;;;4972226;28;20460;-86
2021/09/30 14:21:01;;;;;;;2.50;1.30;;;17.70;61.70;;;;;;4974918;28;20540;-88
2021/09/30 14:23:42;;;;;;;4.10;1.40;;;17.70;62.10;;;;;;4972162;28;21313;-86
2021/09/30 14:26:23;;;;;;;4.70;1.70;;;17.80;62.70;;;;;;4967744;28;20520;-86
2021/09/30 14:29:07;;;;;;;3.83;0.90;;;18.00;62.70;;;;;;4964176;28;20481;-85
2021/09/30 14:31:52;;;;;;;1.50;0.87;;;18.60;61.80;;;;;;4977318;28;20560;-86
2021/09/30 14:34:39;;;;;;;2.37;1.13;;;18.50;61.30;;;;;;4966725;28;20999;-86
2021/09/30 14:37:21;;;;;;;3.33;1.10;;;17.90;63.00;;;;;;4977441;28;20465;-87
2021/09/30 14:40:10;;;;;;;2.90;1.27;;;18.10;62.40;;;;;;4974497;28;20559;-86
2021/09/30 14:42:42;;;;;;;5.10;1.20;;;17.90;62.70;;;;;;4986714;28;20497;-86
2021/09/30 14:45:21;;;;;;;2.30;1.47;;;18.10;62.40;;;;;;4989544;28;20470;-87
2021/09/30 14:47:53;;;;;;;2.27;1.27;;;18.00;61.60;;;;;;4974833;28;20454;-86
2021/09/30 14:50:31;;;;;;;2.93;0.80;;;18.20;59.60;;;;;;4993265;28;20559;-86
2021/09/30 14:53:14;;;;;;;4.57;1.13;;;18.10;58.70;;;;;;4992230;28;20868;-86
2021/09/30 14:55:54;;;;;;;2.63;1.33;;;17.90;59.70;;;;;;4975966;28;20468;-87
2021/09/30 14:58:38;;;;;;;;;;;;;;;;;;;;;
2021/09/30 15:01:29;;;;;;;2.80;1.87;;;17.50;60.10;;;;;;4989550;28;20581;-86
2021/09/30 15:04:08;;;;;;;2.93;0.80;;;17.80;60.60;;;;;;4971766;28;20457;-86
2021/09/30 15:07:00;;;;;;;1.73;1.63;;;17.70;59.70;;;;;;4991619;28;20476;-86
2021/09/30 15:09:40;;;;;;;3.13;0.80;;;18.00;59.50;;;;;;4981661;28;20566;-87
2021/09/30 15:12:13;;;;;;;3.97;1.10;;;18.00;59.80;;;;;;4979471;28;20469;-86
2021/09/30 15:14:43;;;;;;;2.40;0.70;;;17.70;60.90;;;;;;4974304;28;20465;-86
2021/09/30 15:17:24;;;;;;;2.23;0.87;;;17.80;61.60;;;;;;4983334;28;20461;-87
2021/09/30 15:23:18;;;;;;;1.93;0.93;;;18.00;63.20;;;;;;4937998;28;20475;-89
2021/09/30 15:25:53;;;;;;;1.90;0.80;;;17.70;63.50;;;;;;4980894;28;20470;-86
2021/09/30 15:28:43;;;;;;;1.93;0.83;;;17.70;64.10;;;;;;4993626;28;20458;-86
2021/09/30 15:31:49;;;;;;;3.27;1.10;;;17.60;66.00;;;;;;4991307;28;20469;-87
2021/09/30 15:34:48;;;;;;;4.10;1.17;;;17.60;64.90;;;;;;4969999;28;20449;-87
2021/09/30 15:37:21;;;;;;;3.40;2.17;;;17.30;66.20;;;;;;4982118;28;20564;-87
2021/09/30 15:40:09;;;;;;;2.33;1.27;;;17.20;67.00;;;;;;4982293;28;20475;-86
2021/09/30 15:42:59;;;;;;;2.83;1.07;;;17.20;67.70;;;;;;4971088;28;20491;-87
2021/09/30 15:45:48;;;;;;;4.03;1.73;;;17.30;68.70;;;;;;4973524;28;20485;-88
2021/09/30 15:48:23;;;;;;;2.97;1.13;;;17.30;68.90;;;;;;4989967;28;20469;-87
2021/09/30 15:51:17;;;;;;;;;;;;;;;;;;;;;
2021/09/30 15:54:02;;;;;;;5.23;1.90;;;17.70;67.70;;;;;;4925610;28;21170;-88
2021/09/30 15:56:29;;;;;;;2.60;1.00;;;17.50;68.90;;;;;;5010713;28;20505;-90
2021/09/30 15:58:58;;;;;;;2.23;1.40;;;17.50;70.10;;;;;;4985836;28;20489;-88
2021/09/30 16:01:48;;;;;;;3.17;1.30;;;17.40;72.30;;;;;;5018074;22;21017;-88
2021/09/30 16:04:21;;;;;;;2.63;1.80;;;17.30;73.30;;;;;;4962451;28;20407;-87
2021/09/30 16:07:23;;;;;;;4.60;1.37;;;17.20;74.70;;;;;;4951072;28;20457;-87
2021/09/30 16:10:01;;;;;;;2.90;1.50;;;17.30;75.10;;;;;;4971668;28;20543;-89
2021/09/30 16:12:52;;;;;;;2.80;1.30;;;17.10;76.30;;;;;;4967055;28;20490;-89
2021/09/30 16:15:29;;;;;;;2.90;1.40;;;17.10;76.90;;;;;;4990245;28;22059;-90
2021/09/30 16:18:13;;;;;;;3.40;1.20;;;17.10;77.60;;;;;;4980660;28;20707;-90
2021/09/30 16:20:44;;;;;;;1.73;1.30;;;17.00;78.00;;;;;;4980670;28;20478;-89
2021/09/30 16:23:47;;;;;;;4.73;2.87;;;16.90;78.60;;;;;;4976548;28;20537;-91
2021/09/30 16:26:26;;;;;;;3.20;1.57;;;16.80;79.30;;;;;;4967525;28;21765;-86
2021/09/30 16:28:57;;;;;;;4.57;1.53;;;16.90;80.10;;;;;;4965855;28;20486;-88
2021/09/30 16:31:29;;;;;;;5.60;1.50;;;16.90;79.90;;;;;;4964522;28;20465;-90
2021/09/30 16:34:00;;;;;;;2.43;1.23;;;16.90;80.00;;;;;;4969568;28;20545;-87
2021/09/30 16:36:32;;;;;;;3.80;1.33;;;16.90;80.00;;;;;;4969062;28;21947;-86
2021/09/30 16:39:04;;;;;;;1.80;1.40;;;16.90;80.30;;;;;;4985143;28;20546;-87
2021/09/30 16:41:33;;;;;;;2.60;1.47;;;16.90;80.40;;;;;;4966134;28;20452;-89
2021/09/30 16:44:03;;;;;;;4.83;1.57;;;16.80;80.50;;;;;;4963555;28;20545;-90
2021/09/30 16:46:38;;;;;;;3.40;1.33;;;16.70;80.90;;;;;;4966677;28;20525;-86
2021/09/30 16:49:05;;;;;;;3.60;1.40;;;16.70;81.60;;;;;;5010298;23;20486;-88
2021/09/30 16:51:41;;;;;;;1.20;1.10;;;16.60;82.20;;;;;;5039075;28;20455;-86
2021/09/30 16:54:28;;;;;;;2.30;1.30;;;16.70;82.20;;;;;;5024732;28;20463;-88
2021/09/30 16:57:15;;;;;;;4.17;2.20;;;16.70;82.50;;;;;;5029582;28;20454;-88
2021/09/30 16:59:42;;;;;;;3.43;1.63;;;16.70;82.70;;;;;;5030054;28;20479;-87
2021/09/30 17:02:17;;;;;;;2.13;1.80;;;16.50;83.30;;;;;;5031559;28;20564;-87
2021/09/30 17:04:47;;;;;;;3.43;1.87;;;16.60;83.80;;;;;;5028767;28;20558;-90
2021/09/30 17:07:17;;;;;;;8.30;1.97;;;16.50;83.60;;;;;;5030734;28;21334;-87
2021/09/30 17:09:51;;;;;;;3.10;1.30;;;16.50;83.90;;;;;;5031456;28;20515;-88
2021/09/30 17:12:51;;;;;;;3.07;2.10;;;16.60;84.10;;;;;;5052543;28;20563;-87
2021/09/30 17:16:09;;;;;;;2.50;1.57;;;16.60;83.90;;;;;;5021847;28;20457;-91
2021/09/30 17:18:54;;;;;;;3.20;1.23;;;16.60;84.10;;;;;;5084493;22;20486;-88